Aérodrome :
LOGIN :

S'inscrire | Disclaimer

   EN    FR    IT 

 










Légende :    VFR   VFR Marginal   IFR   IFR Intensif   IFR Très Intensif
Visi : 
Plafond : 
>= 8 km
>= 3000ft
5 à 8 km
1000 à 3000 ft
1500m à 5 km
500 à 1000 ft
800 à 1500m
200 à 500 ft
< 800m
< 200 ft
Symboles :   Orages  Brouillard  Fortes neiges  Fortes précipitations  Vent > 20 kt
SIGMETs :   Divers  Orages  Givrage  Turbulence  Onde Orograph.  Cendres Volcan.






- Altitude de l'aérodrome : 124 ft
- Code IATA : AVN


LFMV - Avignon Caumont

DERNIER METAR :
  • 290500Z AUTO 10002KT CAVOK 18/16 Q1015 NOSIG

METARs EXPIRÉS :
  • 290430Z AUTO 10001KT CAVOK 18/15 Q1015 NOSIG
  • 290400Z AUTO VRB01KT CAVOK 19/16 Q1015 NOSIG
  • 290330Z AUTO 35007KT CAVOK 20/15 Q1014 NOSIG
  • 290300Z AUTO VRB02KT CAVOK 19/16 Q1014 NOSIG
  • 290230Z AUTO 34005KT CAVOK 19/16 Q1014 NOSIG

TAF TAF LFMV
Valide du 29 à 03h jusqu'au 30 à 03h UTC


290200Z 2903/3003 36008KT CAVOK
BECMG 2911/2913 21010KT
BECMG 2921/2923 VRB05KT
PROB30
TEMPO 3002/3003 31010KT FEW090CB BKN120
ATIS : +33 4 90 84 32 84



MET'MAP, la Météo Aéronautique d'un coup d'oeil ! - Copyright ORBIFLY Décembre 2007 - Disclaimer

ORBIFLY MET'MAP TEAM :

Programmation & Développement : Alexandra Zaïnal
Sur une idée originale de : Baudouin d'Aumeries
Assistance à la programmation : Marc-Olivier Méhu
Soutien technique & logistique : Manuel Goepfert

Contact : metmap@orbifly.com




SOURCES & CREDITS :

   NOAA